Time;durP1;ratioP1;P1;durP2;ratioP2;P2;SDS_P1;SDS_P2;PMS_P1;PMS_P2;Temp;Humidity;BMP_temperature;BMP_pressure;BME280_temperature;BME280_humidity;BME280_pressure;Samples;Min_cycle;Max_cycle;Signal;HPM_P1;HPM_P2
2024/03/02 00:00:11;;;;;;;8.32;7.53;;;;;;;1.42;82.12;99206.97;2484808;29;20043;-79
2024/03/02 00:01:24;;;;;;;9.52;8.10;;;;;;;1.40;82.09;99208.69;2486747;28;20102;-82
2024/03/02 00:02:41;;;;;;;11.60;7.53;;;;;;;1.40;82.15;99209.56;2493681;29;20059;-83
2024/03/02 00:03:55;;;;;;;11.10;9.60;;;;;;;1.38;81.94;99208.69;2484834;29;20055;-84
2024/03/02 00:05:12;;;;;;;9.95;7.43;;;;;;;1.39;81.98;99200.09;2484630;29;20511;-83
2024/03/02 00:06:25;;;;;;;12.02;8.55;;;;;;;1.39;82.18;99199.25;2484012;29;20043;-80
2024/03/02 00:07:41;;;;;;;11.57;7.22;;;;;;;1.39;81.95;99199.25;2485525;29;20677;-82
2024/03/02 00:08:58;;;;;;;9.38;7.93;;;;;;;1.41;82.16;99205.25;2490971;29;20055;-80
2024/03/02 00:10:18;;;;;;;9.70;8.80;;;;;;;1.40;81.91;99201.00;2461784;28;20588;-80
2024/03/02 00:11:34;;;;;;;10.35;7.50;;;;;;;1.40;82.25;99195.84;2481315;29;20100;-80
2024/03/02 00:12:49;;;;;;;11.70;9.50;;;;;;;1.41;82.08;99194.97;2488772;29;20113;-81
2024/03/02 00:14:02;;;;;;;11.02;8.65;;;;;;;1.39;82.03;99187.25;2482239;29;20062;-81
2024/03/02 00:15:35;;;;;;;8.65;7.57;;;;;;;1.37;81.98;99188.09;2488942;29;20047;-82
2024/03/02 00:16:48;;;;;;;8.90;7.97;;;;;;;1.34;81.95;99190.66;2478831;29;20054;-82
2024/03/02 00:18:04;;;;;;;10.27;8.00;;;;;;;1.32;81.77;99188.09;2488380;28;20107;-80
2024/03/02 00:19:19;;;;;;;9.75;7.70;;;;;;;1.30;82.12;99184.66;2484249;29;20058;-83
2024/03/02 00:20:33;;;;;;;8.65;7.35;;;;;;;1.30;82.08;99184.66;2492327;29;20126;-81
2024/03/02 00:21:47;;;;;;;8.82;6.88;;;;;;;1.29;81.94;99195.75;2490529;28;20126;-81
2024/03/02 00:23:05;;;;;;;8.60;6.90;;;;;;;1.26;81.95;99203.47;2484135;29;20542;-83
2024/03/02 00:24:21;;;;;;;11.52;7.72;;;;;;;1.25;81.86;99197.47;2484287;29;20174;-81
2024/03/02 00:25:45;;;;;;;12.30;7.95;;;;;;;1.22;82.09;99196.59;2491682;28;20047;-80
2024/03/02 00:26:59;;;;;;;10.27;8.23;;;;;;;1.21;82.13;99190.56;2488573;29;20420;-81
2024/03/02 00:28:19;;;;;;;11.90;9.85;;;;;;;1.22;82.05;99189.75;2494573;29;20047;-80
2024/03/02 00:29:32;;;;;;;10.48;8.70;;;;;;;1.24;82.09;99192.31;2485747;29;20108;-82
2024/03/02 00:30:53;;;;;;;13.90;9.15;;;;;;;1.24;81.91;99190.63;2484612;29;20062;-81
2024/03/02 00:32:12;;;;;;;10.00;7.88;;;;;;;1.22;81.90;99187.19;2485097;29;20067;-81
2024/03/02 00:33:29;;;;;;;10.63;9.60;;;;;;;1.22;82.12;99196.59;2491371;28;20058;-81
2024/03/02 00:34:43;;;;;;;13.10;8.48;;;;;;;1.20;81.97;99194.00;2477145;29;21434;-80
2024/03/02 00:35:59;;;;;;;12.63;9.13;;;;;;;1.19;82.12;99189.75;2488512;29;20050;-81
2024/03/02 00:37:14;;;;;;;14.40;8.85;;;;;;;1.18;82.02;99198.28;2488661;29;20047;-80
2024/03/02 00:38:29;;;;;;;10.60;8.48;;;;;;;1.17;81.97;99193.16;2491340;29;20055;-82
2024/03/02 00:39:42;;;;;;;12.05;7.88;;;;;;;1.16;81.97;99192.28;2494326;29;20126;-80
2024/03/02 00:40:57;;;;;;;11.63;9.30;;;;;;;1.17;81.88;99193.16;2490751;29;20055;-80
2024/03/02 00:42:11;;;;;;;13.00;8.88;;;;;;;1.17;82.04;99201.72;2489241;29;20051;-81
2024/03/02 00:43:58;;;;;;;10.02;8.90;;;;;;;1.18;82.07;99193.13;2486991;29;20048;-82
2024/03/02 00:45:12;;;;;;;8.38;7.43;;;;;;;1.14;81.91;99196.56;2484333;29;20059;-81
2024/03/02 00:46:29;;;;;;;9.40;6.88;;;;;;;1.12;82.07;99194.84;2491202;29;20047;-80
2024/03/02 00:47:43;;;;;;;8.75;7.88;;;;;;;1.07;81.70;99203.34;2478422;29;20056;-80
2024/03/02 00:48:58;;;;;;;10.70;7.10;;;;;;;1.05;81.69;99207.63;2491553;28;20051;-80
2024/03/02 00:50:13;;;;;;;11.88;7.40;;;;;;;1.03;81.83;99211.91;2485882;29;20485;-81
2024/03/02 00:51:29;;;;;;;8.38;7.32;;;;;;;1.00;82.01;99205.88;2494195;29;20589;-82
2024/03/02 00:52:43;;;;;;;9.00;7.32;;;;;;;0.99;81.87;99209.31;2494039;29;20105;-81
2024/03/02 00:54:00;;;;;;;11.43;7.82;;;;;;;0.96;81.89;99210.16;2489080;29;20508;-80
2024/03/02 00:55:13;;;;;;;12.23;6.63;;;;;;;0.96;82.06;99217.00;2495778;29;20537;-83
2024/03/02 00:56:28;;;;;;;11.77;7.43;;;;;;;0.94;82.13;99216.13;2495679;29;20058;-81
2024/03/02 00:57:41;;;;;;;8.80;7.68;;;;;;;0.92;82.04;99218.66;2493436;28;20055;-80
2024/03/02 00:58:56;;;;;;;8.50;7.57;;;;;;;0.94;82.31;99226.41;2486832;29;20067;-81
2024/03/02 01:00:15;;;;;;;10.43;7.93;;;;;;;0.94;82.04;99227.25;2486968;29;20047;-82
2024/03/02 01:01:29;;;;;;;10.63;7.43;;;;;;;0.96;82.26;99229.84;2486160;29;20075;-81
2024/03/02 01:02:45;;;;;;;10.25;7.40;;;;;;;0.98;82.00;99228.13;2485998;29;20044;-81
2024/03/02 01:03:59;;;;;;;11.00;9.20;;;;;;;0.99;81.92;99217.00;2490081;29;20089;-82
2024/03/02 01:05:14;;;;;;;11.35;8.13;;;;;;;1.00;82.26;99227.28;2490846;29;20051;-81
2024/03/02 01:06:28;;;;;;;10.82;8.23;;;;;;;1.02;82.44;99224.72;2486201;29;20067;-81
2024/03/02 01:07:42;;;;;;;9.75;7.45;;;;;;;1.04;82.20;99218.75;2494540;29;20032;-79
2024/03/02 01:08:56;;;;;;;10.77;7.90;;;;;;;1.05;82.22;99220.47;2493431;29;20510;-82
2024/03/02 01:10:10;;;;;;;11.95;8.68;;;;;;;1.06;82.18;99216.22;2494379;28;20043;-82
2024/03/02 01:11:25;;;;;;;11.35;8.40;;;;;;;1.06;82.02;99216.22;2494766;29;20127;-82
2024/03/02 01:12:39;;;;;;;10.75;8.57;;;;;;;1.06;82.06;99211.06;2486600;29;20421;-83
2024/03/02 01:13:53;;;;;;;9.35;7.88;;;;;;;1.05;82.25;99212.75;2491684;28;20043;-83
2024/03/02 01:15:08;;;;;;;10.13;7.55;;;;;;;1.05;82.24;99211.91;2490289;29;20489;-82
2024/03/02 01:16:22;;;;;;;9.63;7.82;;;;;;;1.04;82.26;99217.91;2488849;29;20040;-82
2024/03/02 01:17:35;;;;;;;7.90;6.63;;;;;;;1.02;81.94;99219.59;2486264;29;20059;-82
2024/03/02 01:18:50;;;;;;;10.38;8.25;;;;;;;0.98;82.13;99225.53;2492882;29;20055;-83
2024/03/02 01:20:05;;;;;;;9.48;6.40;;;;;;;0.96;82.23;99217.00;2486359;29;20098;-82
2024/03/02 01:21:20;;;;;;;7.95;6.55;;;;;;;0.93;82.01;99219.50;2485032;29;20043;-81
2024/03/02 01:22:34;;;;;;;9.95;6.75;;;;;;;0.90;82.23;99214.38;2486058;29;20058;-83
2024/03/02 01:23:49;;;;;;;9.35;8.02;;;;;;;0.89;82.01;99213.50;2485987;29;20052;-80
2024/03/02 01:25:02;;;;;;;11.82;7.95;;;;;;;0.85;82.12;99207.50;2485931;29;20051;-84
2024/03/02 01:26:17;;;;;;;10.30;7.75;;;;;;;0.83;82.19;99211.75;2486018;29;20177;-83
2024/03/02 01:27:30;;;;;;;8.73;7.20;;;;;;;0.83;82.30;99208.34;2486091;29;20044;-83
2024/03/02 01:28:45;;;;;;;12.30;7.47;;;;;;;0.80;82.02;99206.63;2487382;29;20592;-82
2024/03/02 01:29:59;;;;;;;8.05;7.25;;;;;;;0.78;81.95;99212.59;2491369;28;20048;-84
2024/03/02 01:31:14;;;;;;;10.05;8.30;;;;;;;0.75;82.03;99209.97;2485699;29;20048;-84
2024/03/02 01:32:27;;;;;;;10.05;7.30;;;;;;;0.71;82.03;99211.66;2493328;29;20047;-83
2024/03/02 01:33:41;;;;;;;9.95;7.15;;;;;;;0.71;82.38;99213.38;2486472;29;20506;-81
2024/03/02 01:34:56;;;;;;;9.63;7.45;;;;;;;0.69;82.34;99212.50;2485905;29;20054;-81
2024/03/02 01:36:10;;;;;;;8.05;6.82;;;;;;;0.65;82.19;99209.06;2485854;29;20051;-83
2024/03/02 01:37:25;;;;;;;9.52;6.85;;;;;;;0.63;82.49;99215.88;2485347;29;20052;-80
2024/03/02 01:38:39;;;;;;;9.90;7.43;;;;;;;0.61;82.24;99215.84;2486094;29;20044;-81
2024/03/02 01:39:53;;;;;;;9.60;8.18;;;;;;;0.59;82.04;99214.97;2485886;29;20557;-82
2024/03/02 01:41:08;;;;;;;9.30;7.63;;;;;;;0.56;82.05;99202.13;2490562;29;20310;-80
2024/03/02 01:42:22;;;;;;;9.63;7.47;;;;;;;0.53;81.99;99202.09;2488532;28;20043;-81
2024/03/02 01:43:36;;;;;;;11.77;8.02;;;;;;;0.50;82.14;99203.78;2489454;29;20062;-79
2024/03/02 01:44:50;;;;;;;10.57;8.48;;;;;;;0.47;82.06;99204.63;2491119;29;20047;-82
2024/03/02 01:46:04;;;;;;;10.05;7.97;;;;;;;0.43;82.30;99201.16;2488546;29;20127;-82
2024/03/02 01:47:18;;;;;;;9.57;7.40;;;;;;;0.43;82.04;99210.56;2494232;29;20377;-81
2024/03/02 01:48:32;;;;;;;9.30;7.32;;;;;;;0.41;82.22;99208.00;2489852;29;20135;-82
2024/03/02 01:49:46;;;;;;;11.32;7.18;;;;;;;0.41;82.25;99204.56;2495193;28;20059;-80
2024/03/02 01:51:01;;;;;;;9.35;7.00;;;;;;;0.40;82.18;99206.25;2490996;29;20410;-82
2024/03/02 01:52:14;;;;;;;8.75;7.72;;;;;;;0.38;82.26;99201.97;2491844;29;20047;-81
2024/03/02 01:53:30;;;;;;;9.35;6.50;;;;;;;0.38;82.25;99199.41;2494556;28;20055;-83
2024/03/02 01:54:44;;;;;;;9.13;6.72;;;;;;;0.38;82.41;99207.09;2487303;29;20540;-81
2024/03/02 01:55:58;;;;;;;11.20;7.40;;;;;;;0.37;82.49;99208.81;2487267;29;20312;-82
2024/03/02 01:57:12;;;;;;;10.60;8.15;;;;;;;0.36;82.22;99196.84;2492438;29;20051;-82
2024/03/02 01:58:26;;;;;;;7.78;6.68;;;;;;;0.34;82.42;99195.97;2489571;28;20048;-81
2024/03/02 01:59:40;;;;;;;9.43;6.93;;;;;;;0.32;82.40;99197.63;2488020;28;20570;-82
2024/03/02 02:00:54;;;;;;;7.72;6.85;;;;;;;0.30;82.11;99201.91;2493077;29;20374;-85
2024/03/02 02:02:08;;;;;;;11.15;7.50;;;;;;;0.28;82.42;99193.31;2487426;29;20425;-83
2024/03/02 02:03:22;;;;;;;8.27;6.13;;;;;;;0.28;82.21;99195.88;2487295;29;20123;-83
2024/03/02 02:04:36;;;;;;;11.30;7.22;;;;;;;0.26;82.40;99194.16;2494546;29;20523;-83
2024/03/02 02:05:50;;;;;;;8.75;6.93;;;;;;;0.23;82.33;99187.28;2487505;29;20090;-82
2024/03/02 02:07:04;;;;;;;13.57;8.40;;;;;;;0.22;82.41;99191.56;2491126;29;20486;-81
2024/03/02 02:08:18;;;;;;;9.80;6.47;;;;;;;0.20;82.52;99187.25;2491347;29;20307;-82
2024/03/02 02:09:33;;;;;;;15.60;9.05;;;;;;;0.17;82.34;99185.53;2486763;29;20486;-82
2024/03/02 02:10:48;;;;;;;7.22;6.53;;;;;;;0.13;82.42;99178.66;2493225;29;20047;-81
2024/03/02 02:12:02;;;;;;;9.95;7.15;;;;;;;0.09;82.05;99182.03;2486890;29;20701;-82
2024/03/02 02:13:17;;;;;;;6.90;6.10;;;;;;;0.07;82.19;99176.00;2501005;28;20038;-81
2024/03/02 02:14:30;;;;;;;10.75;7.35;;;;;;;0.06;82.33;99182.00;2488640;29;20307;-82
2024/03/02 02:15:44;;;;;;;7.55;6.72;;;;;;;0.05;82.06;99176.84;2486484;29;20043;-81
2024/03/02 02:16:58;;;;;;;8.77;7.40;;;;;;;0.02;82.47;99174.25;2491521;29;20047;-81
2024/03/02 02:18:12;;;;;;;10.52;6.80;;;;;;;0.00;82.53;99171.69;2485246;29;20298;-82
2024/03/02 02:19:26;;;;;;;8.80;6.95;;;;;;;-0.03;82.23;99175.09;2484814;29;20051;-83
2024/03/02 02:20:40;;;;;;;9.95;7.55;;;;;;;-0.06;82.36;99177.59;2485562;29;20314;-82
2024/03/02 02:21:55;;;;;;;8.88;7.13;;;;;;;-0.06;82.71;99180.16;2491755;28;20052;-82
2024/03/02 02:23:10;;;;;;;8.00;6.60;;;;;;;-0.07;82.14;99172.47;2491138;29;20362;-80
2024/03/02 02:24:23;;;;;;;10.48;7.22;;;;;;;-0.08;82.13;99175.84;2488328;29;20307;-79
2024/03/02 02:25:38;;;;;;;11.50;8.40;;;;;;;-0.09;82.09;99171.59;2492012;28;20298;-81
2024/03/02 02:26:51;;;;;;;7.60;6.80;;;;;;;-0.07;82.60;99178.44;2487030;29;20060;-81
2024/03/02 02:28:06;;;;;;;8.98;7.38;;;;;;;-0.06;82.67;99172.47;2490874;29;20934;-81
2024/03/02 02:29:19;;;;;;;12.48;7.55;;;;;;;-0.05;82.38;99173.34;2484872;29;20505;-82
2024/03/02 02:30:34;;;;;;;11.60;8.18;;;;;;;-0.06;82.59;99171.63;2485066;29;20311;-81
2024/03/02 02:31:47;;;;;;;8.45;6.22;;;;;;;-0.09;82.36;99169.88;2493075;29;20082;-82
2024/03/02 02:33:02;;;;;;;7.50;6.50;;;;;;;-0.10;82.55;99170.72;2485530;29;20318;-80
2024/03/02 02:34:16;;;;;;;9.40;7.00;;;;;;;-0.12;82.54;99167.28;2489833;29;20082;-80
2024/03/02 02:35:30;;;;;;;13.10;7.53;;;;;;;-0.14;82.51;99168.97;2487269;29;20677;-82
2024/03/02 02:36:44;;;;;;;6.25;5.50;;;;;;;-0.16;82.42;99162.94;2492621;29;20054;-80
2024/03/02 02:38:00;;;;;;;12.38;6.97;;;;;;;-0.17;82.49;99163.81;2483989;29;20636;-81
2024/03/02 02:39:16;;;;;;;8.65;6.30;;;;;;;-0.17;82.64;99158.69;2484804;29;20051;-81
2024/03/02 02:40:31;;;;;;;5.32;4.82;;;;;;;-0.18;82.30;99156.97;2491753;29;20311;-81
2024/03/02 02:41:44;;;;;;;7.32;5.85;;;;;;;-0.18;82.72;99154.41;2492781;29;20378;-79
2024/03/02 02:42:59;;;;;;;7.93;6.85;;;;;;;-0.17;82.66;99161.25;2502907;28;20299;-78
2024/03/02 02:44:13;;;;;;;6.25;5.65;;;;;;;-0.15;82.81;99156.16;2497750;29;20067;-82
2024/03/02 02:45:27;;;;;;;7.50;6.20;;;;;;;-0.14;82.71;99156.16;2490101;29;20299;-82
2024/03/02 02:46:41;;;;;;;9.77;6.40;;;;;;;-0.12;82.63;99151.03;2486494;29;20044;-81
2024/03/02 02:47:55;;;;;;;8.48;6.20;;;;;;;-0.13;82.63;99155.31;2488270;29;20307;-83
2024/03/02 02:49:09;;;;;;;8.45;4.95;;;;;;;-0.15;82.84;99151.88;2491634;29;20058;-82
2024/03/02 02:50:23;;;;;;;7.25;6.25;;;;;;;-0.16;82.83;99154.41;2485900;29;20292;-82
2024/03/02 02:51:36;;;;;;;7.93;5.55;;;;;;;-0.16;82.74;99154.41;2486151;29;20044;-80
2024/03/02 02:52:51;;;;;;;8.00;7.20;;;;;;;-0.15;82.59;99153.59;2485738;29;20318;-83
2024/03/02 02:54:06;;;;;;;5.47;4.88;;;;;;;-0.15;82.95;99157.00;2485536;29;20051;-83
2024/03/02 02:55:20;;;;;;;8.85;5.68;;;;;;;-0.12;82.66;99145.91;2491772;29;20989;-83
2024/03/02 02:56:34;;;;;;;12.25;6.63;;;;;;;-0.11;82.89;99147.63;2486772;29;20316;-84
2024/03/02 02:57:48;;;;;;;7.60;5.50;;;;;;;-0.12;82.83;99145.91;2492553;28;20286;-84
2024/03/02 02:59:01;;;;;;;7.57;6.32;;;;;;;-0.12;82.84;99139.06;2488625;29;20047;-82
2024/03/02 03:00:18;;;;;;;6.88;5.68;;;;;;;-0.10;82.85;99139.97;2490000;29;20667;-82
2024/03/02 03:01:32;;;;;;;7.93;6.72;;;;;;;-0.08;82.75;99139.97;2486160;29;20047;-81
2024/03/02 03:02:48;;;;;;;7.25;5.65;;;;;;;-0.06;82.74;99135.72;2485186;29;20307;-82
2024/03/02 03:04:01;;;;;;;7.90;6.05;;;;;;;-0.05;83.03;99137.44;2488899;29;20082;-82
2024/03/02 03:05:16;;;;;;;7.88;6.07;;;;;;;-0.03;82.53;99138.28;2489764;29;20937;-83
2024/03/02 03:06:29;;;;;;;6.43;5.15;;;;;;;-0.04;82.67;99137.44;2492116;29;20051;-82
2024/03/02 03:07:44;;;;;;;7.13;5.15;;;;;;;-0.02;82.77;99142.59;2487239;29;20307;-79
2024/03/02 03:08:58;;;;;;;9.95;5.47;;;;;;;-0.06;82.97;99141.69;2486167;29;20055;-81
2024/03/02 03:10:14;;;;;;;6.93;5.80;;;;;;;-0.06;82.50;99135.72;2489362;29;20314;-81
2024/03/02 03:11:27;;;;;;;7.15;5.68;;;;;;;-0.09;82.92;99133.97;2487305;29;20062;-81
2024/03/02 03:12:42;;;;;;;6.63;5.32;;;;;;;-0.09;82.81;99135.69;2492233;29;20302;-81
2024/03/02 03:13:56;;;;;;;8.13;5.60;;;;;;;-0.13;82.83;99129.69;2486051;29;20134;-80
2024/03/02 03:15:11;;;;;;;8.35;6.55;;;;;;;-0.13;82.79;99124.56;2490195;29;20311;-82
2024/03/02 03:16:25;;;;;;;7.03;6.18;;;;;;;-0.12;82.63;99130.53;2485579;29;20048;-82
2024/03/02 03:17:39;;;;;;;7.13;5.70;;;;;;;-0.13;82.50;99128.78;2498546;28;20289;-77
2024/03/02 03:18:53;;;;;;;9.70;6.32;;;;;;;-0.16;82.68;99127.06;2498710;29;20043;-81
2024/03/02 03:20:10;;;;;;;9.57;6.93;;;;;;;-0.18;82.75;99121.09;2483668;29;20311;-81
2024/03/02 03:21:23;;;;;;;7.38;5.10;;;;;;;-0.19;82.67;99124.47;2489716;28;20094;-82
2024/03/02 03:22:38;;;;;;;8.85;4.97;;;;;;;-0.22;82.45;99127.00;2485938;29;20389;-82
2024/03/02 03:23:51;;;;;;;6.68;5.32;;;;;;;-0.26;82.36;99130.38;2483892;29;20051;-82
2024/03/02 03:25:07;;;;;;;7.07;5.93;;;;;;;-0.31;82.30;99125.22;2487782;29;20321;-80
2024/03/02 03:26:22;;;;;;;6.68;5.25;;;;;;;-0.33;82.49;99129.47;2487854;28;20054;-80
2024/03/02 03:27:37;;;;;;;8.57;5.53;;;;;;;-0.34;82.60;99125.16;2484346;29;20086;-81
2024/03/02 03:28:50;;;;;;;7.57;5.95;;;;;;;-0.36;82.21;99123.44;2483979;29;20303;-80
2024/03/02 03:30:06;;;;;;;5.63;5.07;;;;;;;-0.37;82.47;99126.84;2483757;29;20366;-82
2024/03/02 03:31:20;;;;;;;7.97;4.97;;;;;;;-0.38;82.81;99117.44;2490390;29;20126;-81
2024/03/02 03:32:34;;;;;;;6.05;5.30;;;;;;;-0.38;82.82;99123.44;2487169;29;20829;-81
2024/03/02 03:33:48;;;;;;;5.95;5.15;;;;;;;-0.37;82.44;99129.41;2483885;29;20051;-83
2024/03/02 03:35:02;;;;;;;7.28;5.65;;;;;;;-0.39;82.38;99124.25;2484201;29;20354;-79
2024/03/02 03:36:16;;;;;;;9.50;6.90;;;;;;;-0.40;82.63;99125.09;2489715;29;20055;-81
2024/03/02 03:37:32;;;;;;;9.15;5.57;;;;;;;-0.40;82.88;99126.81;2487402;29;20311;-84
2024/03/02 03:38:46;;;;;;;5.85;4.93;;;;;;;-0.41;82.63;99127.63;2492507;29;20484;-84
2024/03/02 03:40:00;;;;;;;5.07;4.38;;;;;;;-0.42;82.53;99129.34;2487550;29;20307;-82
2024/03/02 03:41:14;;;;;;;6.50;4.85;;;;;;;-0.43;82.63;99122.53;2490161;29;20079;-82
2024/03/02 03:42:30;;;;;;;10.32;4.53;;;;;;;-0.40;82.63;99119.13;2490435;29;20286;-82
2024/03/02 03:43:44;;;;;;;9.27;6.00;;;;;;;-0.39;82.40;99118.28;2494238;29;20310;-82
2024/03/02 03:44:58;;;;;;;5.63;4.28;;;;;;;-0.39;82.90;99123.41;2491494;29;20311;-82
2024/03/02 03:46:12;;;;;;;8.45;5.43;;;;;;;-0.41;82.18;99125.97;2488802;29;20047;-83
2024/03/02 03:47:26;;;;;;;5.45;4.90;;;;;;;-0.44;82.92;99115.66;2488274;29;20843;-82
2024/03/02 03:48:40;;;;;;;5.82;5.00;;;;;;;-0.46;82.39;99123.34;2492265;29;20104;-80
2024/03/02 03:49:54;;;;;;;5.50;4.82;;;;;;;-0.48;82.33;99119.91;2486053;29;20362;-80
2024/03/02 03:51:08;;;;;;;9.07;5.35;;;;;;;-0.48;82.92;99126.72;2490076;29;20054;-82
2024/03/02 03:52:22;;;;;;;9.73;6.43;;;;;;;-0.49;82.77;99120.75;2484741;29;20677;-79
2024/03/02 03:53:36;;;;;;;5.18;4.47;;;;;;;-0.47;82.88;99123.31;2484215;29;20056;-82
2024/03/02 03:54:50;;;;;;;8.52;5.38;;;;;;;-0.49;82.76;99125.00;2484170;29;20311;-81
2024/03/02 03:56:04;;;;;;;8.20;5.65;;;;;;;-0.49;82.45;99114.75;2484465;29;20062;-81
2024/03/02 03:57:19;;;;;;;6.45;4.85;;;;;;;-0.48;82.53;99122.47;2489316;28;20306;-81
2024/03/02 03:58:33;;;;;;;7.65;5.32;;;;;;;-0.49;82.32;99122.44;2487261;29;20311;-82
2024/03/02 03:59:48;;;;;;;7.63;5.47;;;;;;;-0.51;82.37;99130.13;2484774;29;20353;-81
2024/03/02 04:01:02;;;;;;;5.15;4.55;;;;;;;-0.53;82.39;99134.38;2484955;29;20704;-81
2024/03/02 04:02:16;;;;;;;6.85;4.88;;;;;;;-0.54;82.37;99135.22;2484287;29;20292;-82
2024/03/02 04:03:30;;;;;;;5.70;4.60;;;;;;;-0.57;82.13;99137.72;2490711;29;20682;-81
2024/03/02 04:04:44;;;;;;;9.48;5.85;;;;;;;-0.60;82.38;99142.81;2486256;29;20055;-82
2024/03/02 04:05:58;;;;;;;8.20;5.93;;;;;;;-0.64;82.78;99135.94;2491583;28;20291;-81
2024/03/02 04:07:11;;;;;;;8.40;6.40;;;;;;;-0.65;82.65;99136.78;2484801;29;20047;-81
2024/03/02 04:08:26;;;;;;;9.85;7.07;;;;;;;-0.67;82.67;99136.78;2484241;29;20749;-80
2024/03/02 04:09:39;;;;;;;6.38;5.07;;;;;;;-0.64;82.77;99135.94;2492328;28;20050;-81
2024/03/02 04:10:54;;;;;;;8.13;5.07;;;;;;;-0.66;82.47;99133.34;2492480;29;20733;-81
2024/03/02 04:12:07;;;;;;;8.10;5.60;;;;;;;-0.67;82.74;99135.91;2484546;29;20078;-81
2024/03/02 04:13:22;;;;;;;6.45;5.85;;;;;;;-0.69;82.74;99132.47;2484110;29;20330;-80
2024/03/02 04:14:37;;;;;;;6.43;5.18;;;;;;;-0.71;82.80;99131.59;2484653;29;20059;-80
2024/03/02 04:15:52;;;;;;;8.10;5.88;;;;;;;-0.74;82.49;99132.41;2484574;29;20323;-82
2024/03/02 04:17:05;;;;;;;5.40;4.72;;;;;;;-0.74;82.40;99127.28;2485245;29;20393;-80
2024/03/02 04:18:19;;;;;;;7.40;5.68;;;;;;;-0.75;82.50;99128.13;2489719;29;20279;-82
2024/03/02 04:19:34;;;;;;;5.55;5.05;;;;;;;-0.76;82.46;99133.22;2487682;29;20048;-82
2024/03/02 04:20:48;;;;;;;6.53;4.70;;;;;;;-0.78;82.63;99132.34;2494165;29;20378;-82
2024/03/02 04:22:05;;;;;;;8.20;5.90;;;;;;;-0.79;82.42;99138.31;2495776;28;20816;-79
2024/03/02 04:23:19;;;;;;;6.47;5.35;;;;;;;-0.82;82.35;99136.59;2492551;29;20330;-81
2024/03/02 04:24:32;;;;;;;5.70;5.18;;;;;;;-0.83;82.37;99147.66;2483386;29;20303;-82
2024/03/02 04:25:47;;;;;;;5.97;5.13;;;;;;;-0.85;82.30;99148.47;2491032;28;20286;-80
2024/03/02 04:27:00;;;;;;;9.02;6.63;;;;;;;-0.90;82.60;99151.84;2483869;29;20453;-80
2024/03/02 04:28:15;;;;;;;6.55;4.68;;;;;;;-0.93;82.38;99150.94;2488658;29;20386;-82
2024/03/02 04:29:28;;;;;;;8.05;5.60;;;;;;;-0.97;82.39;99152.59;2493425;28;20062;-81
2024/03/02 04:30:44;;;;;;;6.07;4.97;;;;;;;-1.00;82.66;99154.28;2485943;29;20295;-80
2024/03/02 04:31:57;;;;;;;7.65;4.88;;;;;;;-1.02;82.51;99159.34;2491695;29;20051;-80
2024/03/02 04:33:12;;;;;;;4.35;3.95;;;;;;;-1.03;82.80;99152.53;2484402;29;20406;-82
2024/03/02 04:34:25;;;;;;;5.32;4.55;;;;;;;-1.00;82.95;99151.72;2483519;29;20043;-79
2024/03/02 04:35:40;;;;;;;5.78;5.07;;;;;;;-1.00;82.57;99162.81;2492380;29;20951;-81
2024/03/02 04:36:54;;;;;;;7.75;4.25;;;;;;;-0.99;82.80;99153.41;2485414;29;20055;-83
2024/03/02 04:38:08;;;;;;;6.45;4.25;;;;;;;-1.01;82.67;99160.22;2484664;29;20295;-82
2024/03/02 04:39:22;;;;;;;7.72;4.43;;;;;;;-1.02;82.65;99161.06;2490314;29;20737;-82
2024/03/02 04:40:36;;;;;;;8.73;5.90;;;;;;;-1.06;82.53;99165.25;2488017;29;20070;-82
2024/03/02 04:41:50;;;;;;;7.15;5.07;;;;;;;-1.09;82.29;99165.22;2492626;28;20374;-82
2024/03/02 04:43:04;;;;;;;8.75;5.10;;;;;;;-1.08;82.52;99161.84;2485007;29;20701;-82
2024/03/02 04:44:18;;;;;;;7.63;6.18;;;;;;;-1.08;82.53;99168.63;2485270;29;20315;-82
2024/03/02 04:45:31;;;;;;;14.20;7.35;;;;;;;-1.08;82.67;99159.28;2490787;28;20051;-82
2024/03/02 04:46:47;;;;;;;7.20;5.28;;;;;;;-1.05;83.01;99161.88;2486617;29;20311;-82
2024/03/02 04:48:01;;;;;;;5.53;5.03;;;;;;;-1.04;82.66;99166.16;2492038;29;20497;-81
2024/03/02 04:49:15;;;;;;;6.30;4.55;;;;;;;-1.01;83.04;99167.88;2484430;29;20309;-81
2024/03/02 04:50:29;;;;;;;6.63;5.10;;;;;;;-1.02;82.48;99174.72;2490403;29;20043;-82
2024/03/02 04:51:43;;;;;;;6.75;4.88;;;;;;;-1.04;82.61;99171.28;2486823;29;20335;-79
2024/03/02 04:52:57;;;;;;;7.22;4.70;;;;;;;-1.05;82.43;99176.38;2477604;29;20052;-82
2024/03/02 04:54:14;;;;;;;5.20;4.70;;;;;;;-1.09;82.46;99178.03;2484468;29;20319;-82
2024/03/02 04:55:52;;;;;;;5.53;4.47;;;;;;;-1.12;82.51;99183.09;2485126;29;20307;-82
2024/03/02 04:57:07;;;;;;;7.10;5.20;;;;;;;-1.15;82.86;99183.91;2478593;29;20840;-82
2024/03/02 04:58:21;;;;;;;8.52;5.13;;;;;;;-1.13;82.73;99183.97;2489500;29;20291;-81
2024/03/02 04:59:35;;;;;;;5.37;4.40;;;;;;;-1.13;82.84;99183.97;2487309;29;20883;-80
2024/03/02 05:00:48;;;;;;;6.45;4.80;;;;;;;-1.13;82.58;99181.41;2485025;29;20063;-84
2024/03/02 05:02:04;;;;;;;9.57;6.35;;;;;;;-1.13;82.86;99194.19;2484913;29;20625;-84
2024/03/02 05:03:18;;;;;;;6.70;4.50;;;;;;;-1.14;82.66;99184.78;2485330;29;20048;-82
2024/03/02 05:04:32;;;;;;;7.22;4.25;;;;;;;-1.15;82.85;99188.19;2491454;29;20335;-81
2024/03/02 05:05:46;;;;;;;5.90;4.35;;;;;;;-1.16;82.92;99186.44;2486409;29;20051;-81
2024/03/02 05:07:01;;;;;;;5.32;4.28;;;;;;;-1.17;82.93;99184.72;2493421;29;20302;-80
2024/03/02 05:08:16;;;;;;;7.65;4.93;;;;;;;-1.17;82.82;99182.19;2485470;29;20306;-82
2024/03/02 05:09:30;;;;;;;6.55;4.15;;;;;;;-1.16;82.69;99194.13;2485264;29;20481;-81
2024/03/02 05:10:43;;;;;;;7.85;4.93;;;;;;;-1.16;82.48;99191.56;2489804;29;20294;-78
2024/03/02 05:12:17;;;;;;;6.78;6.05;;;;;;;-1.17;82.51;99184.72;2481325;29;20367;-82
2024/03/02 05:13:31;;;;;;;5.55;5.00;;;;;;;-1.20;82.58;99190.66;2490185;29;20086;-83
2024/03/02 05:14:45;;;;;;;5.35;4.15;;;;;;;-1.21;82.89;99190.66;2494689;29;20051;-81
2024/03/02 05:16:00;;;;;;;5.95;4.00;;;;;;;-1.25;82.53;99184.63;2486637;29;20371;-81
2024/03/02 05:17:14;;;;;;;4.82;4.28;;;;;;;-1.27;82.69;99188.84;2490237;29;20307;-79
2024/03/02 05:18:29;;;;;;;7.35;4.07;;;;;;;-1.28;82.67;99183.72;2489437;28;20362;-82
2024/03/02 05:19:42;;;;;;;5.85;5.20;;;;;;;-1.29;82.52;99185.44;2493444;29;20306;-79
2024/03/02 05:20:57;;;;;;;4.65;4.25;;;;;;;-1.30;82.47;99193.06;2494029;29;20817;-82
2024/03/02 05:22:10;;;;;;;5.47;4.13;;;;;;;-1.31;82.72;99184.53;2485674;29;20055;-82
2024/03/02 05:23:25;;;;;;;5.18;3.90;;;;;;;-1.31;82.60;99189.66;2485171;29;20369;-81
2024/03/02 05:24:38;;;;;;;5.38;4.82;;;;;;;-1.32;82.83;99188.81;2492898;29;20533;-82
2024/03/02 05:25:53;;;;;;;5.38;4.88;;;;;;;-1.32;82.88;99182.78;2495522;28;20283;-82
2024/03/02 05:27:07;;;;;;;6.50;5.53;;;;;;;-1.32;82.64;99186.25;2504249;29;20153;-79
2024/03/02 05:28:21;;;;;;;4.07;3.63;;;;;;;-1.31;82.74;99194.78;2491091;29;20398;-80
2024/03/02 05:29:35;;;;;;;5.10;3.88;;;;;;;-1.30;83.22;99193.06;2489214;28;20298;-81
2024/03/02 05:30:49;;;;;;;5.43;4.85;;;;;;;-1.31;83.01;99187.09;2486361;29;20313;-81
2024/03/02 05:32:03;;;;;;;5.95;4.40;;;;;;;-1.30;82.94;99195.63;2490475;29;20094;-82
2024/03/02 05:33:22;;;;;;;7.60;5.30;;;;;;;-1.32;83.04;99193.91;2489467;29;20315;-82
2024/03/02 05:34:35;;;;;;;12.68;6.28;;;;;;;-1.31;82.64;99197.34;2491515;28;20110;-82
2024/03/02 05:35:50;;;;;;;6.00;4.70;;;;;;;-1.32;83.17;99193.03;2488973;29;20314;-82
2024/03/02 05:37:04;;;;;;;6.32;5.35;;;;;;;-1.32;83.02;99186.25;2494599;29;20110;-82
2024/03/02 05:38:18;;;;;;;7.43;4.57;;;;;;;-1.30;82.66;99187.94;2486977;29;20284;-82
2024/03/02 05:39:32;;;;;;;8.52;4.60;;;;;;;-1.32;82.70;99186.25;2487834;29;20051;-83
2024/03/02 05:40:46;;;;;;;4.80;4.30;;;;;;;-1.33;83.17;99179.38;2495749;29;20346;-80
2024/03/02 05:41:59;;;;;;;9.20;6.75;;;;;;;-1.32;83.16;99183.69;2481745;29;20052;-82
2024/03/02 05:43:14;;;;;;;6.47;4.72;;;;;;;-1.31;83.05;99184.53;2493811;29;20346;-83
2024/03/02 05:44:27;;;;;;;6.95;4.60;;;;;;;-1.34;83.03;99182.78;2493444;29;20043;-81
2024/03/02 05:45:42;;;;;;;7.88;5.18;;;;;;;-1.34;82.85;99181.94;2500858;28;20849;-79
2024/03/02 05:46:55;;;;;;;8.70;5.82;;;;;;;-1.36;83.37;99189.56;2502520;29;20047;-78
2024/03/02 05:48:10;;;;;;;6.40;5.03;;;;;;;-1.35;82.95;99188.72;2490204;29;20467;-83
2024/03/02 05:49:24;;;;;;;10.50;5.97;;;;;;;-1.35;83.35;99191.28;2491113;29;20043;-83
2024/03/02 05:50:39;;;;;;;5.95;5.35;;;;;;;-1.36;83.49;99187.03;2486654;29;20753;-81
2024/03/02 05:51:53;;;;;;;6.40;5.47;;;;;;;-1.34;83.25;99179.38;2486438;29;20397;-82